sensor_id;sensor_type;location;lat;lon;timestamp;pressure;altitude;pressure_sealevel;temperature;humidity
66021;BME280;52789;59.980;30.346;2022-08-04T00:05:34;101899.47;;;16.96;100.00
66021;BME280;52789;59.980;30.346;2022-08-04T00:10:59;101884.38;;;16.87;100.00
66021;BME280;52789;59.980;30.346;2022-08-04T00:13:27;101893.41;;;16.94;100.00
66021;BME280;52789;59.980;30.346;2022-08-04T00:16:03;101907.66;;;17.03;100.00
66021;BME280;52789;59.980;30.346;2022-08-04T00:18:43;101905.78;;;17.12;100.00
66021;BME280;52789;59.980;30.346;2022-08-04T00:21:12;101909.41;;;17.19;100.00
66021;BME280;52789;59.980;30.346;2022-08-04T00:23:38;101913.44;;;17.23;99.74
66021;BME280;52789;59.980;30.346;2022-08-04T00:26:07;101913.06;;;17.26;99.31
66021;BME280;52789;59.980;30.346;2022-08-04T00:28:35;101898.94;;;17.24;99.46
66021;BME280;52789;59.980;30.346;2022-08-04T00:31:03;101904.34;;;17.24;99.20
66021;BME280;52789;59.980;30.346;2022-08-04T00:33:30;101895.59;;;17.22;99.39
66021;BME280;52789;59.980;30.346;2022-08-04T00:35:57;101901.69;;;17.16;99.34
66021;BME280;52789;59.980;30.346;2022-08-04T00:38:24;101910.13;;;17.13;99.58
66021;BME280;52789;59.980;30.346;2022-08-04T00:41:06;101900.75;;;17.09;100.00
66021;BME280;52789;59.980;30.346;2022-08-04T00:54:55;101906.28;;;16.76;100.00
66021;BME280;52789;59.980;30.346;2022-08-04T01:00:22;101902.28;;;16.64;100.00
66021;BME280;52789;59.980;30.346;2022-08-04T01:02:56;101895.22;;;16.63;100.00
66021;BME280;52789;59.980;30.346;2022-08-04T01:06:27;101908.84;;;16.61;100.00
66021;BME280;52789;59.980;30.346;2022-08-04T01:08:41;101901.31;;;16.57;100.00
66021;BME280;52789;59.980;30.346;2022-08-04T01:11:17;101904.34;;;16.54;100.00
66021;BME280;52789;59.980;30.346;2022-08-04T01:16:51;101903.34;;;16.47;100.00
66021;BME280;52789;59.980;30.346;2022-08-04T01:25:23;101905.06;;;16.39;100.00
66021;BME280;52789;59.980;30.346;2022-08-04T01:30:41;101893.50;;;16.31;100.00
66021;BME280;52789;59.980;30.346;2022-08-04T01:33:12;101895.34;;;16.30;100.00
66021;BME280;52789;59.980;30.346;2022-08-04T01:35:50;101901.56;;;16.31;100.00
66021;BME280;52789;59.980;30.346;2022-08-04T01:38:28;101899.03;;;16.29;100.00
66021;BME280;52789;59.980;30.346;2022-08-04T01:41:08;101889.47;;;16.27;100.00
66021;BME280;52789;59.980;30.346;2022-08-04T01:43:41;101887.97;;;16.24;100.00
66021;BME280;52789;59.980;30.346;2022-08-04T01:46:13;101896.03;;;16.24;100.00
66021;BME280;52789;59.980;30.346;2022-08-04T01:48:45;101895.53;;;16.21;100.00
66021;BME280;52789;59.980;30.346;2022-08-04T01:51:11;101895.53;;;16.21;100.00
66021;BME280;52789;59.980;30.346;2022-08-04T01:53:39;101892.03;;;16.20;100.00
66021;BME280;52789;59.980;30.346;2022-08-04T01:56:10;101886.47;;;16.14;100.00
66021;BME280;52789;59.980;30.346;2022-08-04T01:58:38;101894.53;;;16.14;100.00
66021;BME280;52789;59.980;30.346;2022-08-04T02:01:09;101903.91;;;16.18;100.00
66021;BME280;52789;59.980;30.346;2022-08-04T02:03:38;101898.72;;;16.16;100.00
66021;BME280;52789;59.980;30.346;2022-08-04T02:06:10;101897.88;;;16.16;100.00
66021;BME280;52789;59.980;30.346;2022-08-04T02:11:15;101898.06;;;16.14;100.00
66021;BME280;52789;59.980;30.346;2022-08-04T02:14:24;101902.44;;;16.23;100.00
66021;BME280;52789;59.980;30.346;2022-08-04T02:16:49;101909.16;;;16.19;100.00
66021;BME280;52789;59.980;30.346;2022-08-04T02:19:55;101900.41;;;16.17;100.00
66021;BME280;52789;59.980;30.346;2022-08-04T02:22:26;101905.78;;;16.17;100.00
66021;BME280;52789;59.980;30.346;2022-08-04T02:25:13;101910.16;;;16.26;100.00
66021;BME280;52789;59.980;30.346;2022-08-04T02:28:03;101911.16;;;16.25;100.00
66021;BME280;52789;59.980;30.346;2022-08-04T02:30:40;101905.47;;;16.20;100.00
66021;BME280;52789;59.980;30.346;2022-08-04T02:33:11;101876.94;;;16.03;100.00
66021;BME280;52789;59.980;30.346;2022-08-04T02:35:39;101910.16;;;16.26;100.00
66021;BME280;52789;59.980;30.346;2022-08-04T02:38:23;101906.44;;;16.27;100.00
66021;BME280;52789;59.980;30.346;2022-08-04T02:40:53;101902.06;;;16.26;100.00
66021;BME280;52789;59.980;30.346;2022-08-04T02:43:24;101909.44;;;16.32;100.00
66021;BME280;52789;59.980;30.346;2022-08-04T02:45:54;101910.47;;;16.31;100.00
66021;BME280;52789;59.980;30.346;2022-08-04T02:48:23;101909.94;;;16.36;100.00
66021;BME280;52789;59.980;30.346;2022-08-04T02:50:52;101905.88;;;16.40;100.00
66021;BME280;52789;59.980;30.346;2022-08-04T02:53:21;101909.06;;;16.43;100.00
66021;BME280;52789;59.980;30.346;2022-08-04T02:55:47;101908.72;;;16.47;100.00
66021;BME280;52789;59.980;30.346;2022-08-04T02:58:16;101907.56;;;16.49;100.00
66021;BME280;52789;59.980;30.346;2022-08-04T03:00:44;101905.84;;;16.56;100.00
66021;BME280;52789;59.980;30.346;2022-08-04T03:11:33;101904.28;;;16.78;100.00
66021;BME280;52789;59.980;30.346;2022-08-04T03:30:50;101910.75;;;23.96;69.42
66021;BME280;52789;59.980;30.346;2022-08-04T03:42:08;101914.59;;;25.77;62.17
66021;BME280;52789;59.980;30.346;2022-08-04T03:54:03;101904.31;;;20.71;79.18
66021;BME280;52789;59.980;30.346;2022-08-04T03:57:10;101905.25;;;20.16;81.83
66021;BME280;52789;59.980;30.346;2022-08-04T04:00:04;101903.72;;;19.79;83.38
66021;BME280;52789;59.980;30.346;2022-08-04T04:02:59;101902.06;;;19.57;84.87
66021;BME280;52789;59.980;30.346;2022-08-04T04:08:28;101900.56;;;19.11;86.73
66021;BME280;52789;59.980;30.346;2022-08-04T04:16:57;101899.22;;;19.43;85.87
66021;BME280;52789;59.980;30.346;2022-08-04T04:19:50;101900.97;;;19.51;85.83
66021;BME280;52789;59.980;30.346;2022-08-04T04:30:25;101914.03;;;19.47;85.13
66021;BME280;52789;59.980;30.346;2022-08-04T04:33:05;101911.03;;;19.21;86.45
66021;BME280;52789;59.980;30.346;2022-08-04T04:35:40;101913.50;;;19.01;87.10
66021;BME280;52789;59.980;30.346;2022-08-04T04:41:11;101917.81;;;18.96;88.01
66021;BME280;52789;59.980;30.346;2022-08-04T04:46:25;101922.41;;;19.74;84.80
66021;BME280;52789;59.980;30.346;2022-08-04T04:51:59;101930.63;;;19.44;86.02
66021;BME280;52789;59.980;30.346;2022-08-04T04:54:36;101937.03;;;20.07;83.87
66021;BME280;52789;59.980;30.346;2022-08-04T04:57:20;101934.22;;;22.18;76.42
66021;BME280;52789;59.980;30.346;2022-08-04T04:59:56;101933.03;;;23.87;69.18
66021;BME280;52789;59.980;30.346;2022-08-04T05:10:59;101945.34;;;26.54;57.85
66021;BME280;52789;59.980;30.346;2022-08-04T05:13:33;101917.22;;;26.18;57.97
66021;BME280;52789;59.980;30.346;2022-08-04T05:16:19;101947.78;;;25.32;60.83
66021;BME280;52789;59.980;30.346;2022-08-04T05:18:57;101942.75;;;23.76;65.62
66021;BME280;52789;59.980;30.346;2022-08-04T05:21:49;101950.84;;;22.55;69.98
66021;BME280;52789;59.980;30.346;2022-08-04T05:24:23;101948.81;;;21.78;73.67
66021;BME280;52789;59.980;30.346;2022-08-04T05:26:53;101948.31;;;21.34;75.45
66021;BME280;52789;59.980;30.346;2022-08-04T05:29:50;101946.13;;;21.10;75.49
66021;BME280;52789;59.980;30.346;2022-08-04T05:32:19;101950.25;;;20.93;76.73
66021;BME280;52789;59.980;30.346;2022-08-04T05:35:11;101945.66;;;20.87;77.25
66021;BME280;52789;59.980;30.346;2022-08-04T05:37:39;101944.38;;;20.83;77.33
66021;BME280;52789;59.980;30.346;2022-08-04T05:40:09;101942.72;;;20.82;77.40
66021;BME280;52789;59.980;30.346;2022-08-04T05:42:37;101947.75;;;20.91;77.33
66021;BME280;52789;59.980;30.346;2022-08-04T05:45:06;101944.81;;;20.86;76.52
66021;BME280;52789;59.980;30.346;2022-08-04T05:47:33;101932.03;;;20.73;76.41
66021;BME280;52789;59.980;30.346;2022-08-04T05:50:00;101956.91;;;20.90;75.68
66021;BME280;52789;59.980;30.346;2022-08-04T05:52:29;101955.25;;;20.96;71.61
66021;BME280;52789;59.980;30.346;2022-08-04T05:54:56;101943.59;;;21.02;70.81
66021;BME280;52789;59.980;30.346;2022-08-04T05:57:23;101948.63;;;21.05;72.74
66021;BME280;52789;59.980;30.346;2022-08-04T05:59:50;101960.13;;;21.14;72.08
66021;BME280;52789;59.980;30.346;2022-08-04T06:02:17;101958.47;;;21.13;72.05
66021;BME280;52789;59.980;30.346;2022-08-04T06:04:46;101957.00;;;21.17;70.18
66021;BME280;52789;59.980;30.346;2022-08-04T06:07:13;101945.75;;;21.20;69.26
66021;BME280;52789;59.980;30.346;2022-08-04T06:09:40;101953.72;;;21.28;68.91
66021;BME280;52789;59.980;30.346;2022-08-04T06:12:08;101959.59;;;21.38;66.52
66021;BME280;52789;59.980;30.346;2022-08-04T06:14:39;101945.03;;;21.46;65.01
66021;BME280;52789;59.980;30.346;2022-08-04T06:17:07;101953.38;;;21.51;64.63
66021;BME280;52789;59.980;30.346;2022-08-04T06:19:34;101955.03;;;21.58;64.89
66021;BME280;52789;59.980;30.346;2022-08-04T06:22:03;101950.44;;;21.59;63.50
66021;BME280;52789;59.980;30.346;2022-08-04T06:24:55;101922.09;;;21.48;63.60
66021;BME280;52789;59.980;30.346;2022-08-04T06:27:23;101962.16;;;21.79;63.03
66021;BME280;52789;59.980;30.346;2022-08-04T06:29:49;101955.50;;;21.82;61.36
66021;BME280;52789;59.980;30.346;2022-08-04T06:32:17;101959.25;;;21.87;61.06
66021;BME280;52789;59.980;30.346;2022-08-04T06:35:02;101960.91;;;21.88;60.86
66021;BME280;52789;59.980;30.346;2022-08-04T06:37:31;101947.34;;;21.82;61.41
66021;BME280;52789;59.980;30.346;2022-08-04T06:39:57;101968.41;;;21.93;60.83
66021;BME280;52789;59.980;30.346;2022-08-04T06:42:30;101961.72;;;21.95;59.96
66021;BME280;52789;59.980;30.346;2022-08-04T06:44:57;101966.34;;;22.02;61.18
66021;BME280;52789;59.980;30.346;2022-08-04T06:47:25;101971.19;;;22.06;61.63
66021;BME280;52789;59.980;30.346;2022-08-04T06:50:22;101974.72;;;22.07;61.46
66021;BME280;52789;59.980;30.346;2022-08-04T06:52:49;101954.63;;;21.94;60.71
66021;BME280;52789;59.980;30.346;2022-08-04T06:58:01;101965.53;;;22.14;61.71
66021;BME280;52789;59.980;30.346;2022-08-04T07:00:27;101975.94;;;22.24;62.01
66021;BME280;52789;59.980;30.346;2022-08-04T07:02:54;101966.34;;;22.21;62.24
66021;BME280;52789;59.980;30.346;2022-08-04T07:05:20;101970.97;;;22.28;62.05
66021;BME280;52789;59.980;30.346;2022-08-04T07:07:48;101963.88;;;22.27;60.34
66021;BME280;52789;59.980;30.346;2022-08-04T07:10:14;101967.59;;;22.32;60.41
66021;BME280;52789;59.980;30.346;2022-08-04T07:12:42;101953.81;;;22.34;60.18
66021;BME280;52789;59.980;30.346;2022-08-04T07:15:09;101965.91;;;22.44;60.66
66021;BME280;52789;59.980;30.346;2022-08-04T07:17:36;101967.75;;;22.50;59.56
66021;BME280;52789;59.980;30.346;2022-08-04T07:20:05;101967.16;;;22.48;59.89
66021;BME280;52789;59.980;30.346;2022-08-04T07:22:31;101971.31;;;22.51;59.33
66021;BME280;52789;59.980;30.346;2022-08-04T07:24:57;101976.53;;;22.52;60.57
66021;BME280;52789;59.980;30.346;2022-08-04T07:27:24;101972.16;;;22.51;59.94
66021;BME280;52789;59.980;30.346;2022-08-04T07:29:51;101965.88;;;22.51;58.80
66021;BME280;52789;59.980;30.346;2022-08-04T07:32:20;101975.69;;;22.59;59.69
66021;BME280;52789;59.980;30.346;2022-08-04T07:34:47;101979.41;;;22.71;60.50
66021;BME280;52789;59.980;30.346;2022-08-04T07:37:14;101971.66;;;22.74;59.18
66021;BME280;52789;59.980;30.346;2022-08-04T07:39:39;101972.94;;;22.85;59.37
66021;BME280;52789;59.980;30.346;2022-08-04T07:42:05;101979.59;;;22.89;58.57
66021;BME280;52789;59.980;30.346;2022-08-04T07:44:32;101977.50;;;22.91;59.57
66021;BME280;52789;59.980;30.346;2022-08-04T07:47:00;101984.63;;;22.92;56.85
66021;BME280;52789;59.980;30.346;2022-08-04T07:49:26;101976.25;;;22.94;56.33
66021;BME280;52789;59.980;30.346;2022-08-04T07:51:52;101976.03;;;22.95;55.34
66021;BME280;52789;59.980;30.346;2022-08-04T07:54:18;101965.81;;;22.91;56.34
66021;BME280;52789;59.980;30.346;2022-08-04T07:56:45;101983.50;;;23.06;57.40
66021;BME280;52789;59.980;30.346;2022-08-04T07:59:16;101979.94;;;23.06;57.14
66021;BME280;52789;59.980;30.346;2022-08-04T08:01:42;101954.13;;;22.90;57.31
66021;BME280;52789;59.980;30.346;2022-08-04T08:04:09;101982.00;;;23.10;55.68
66021;BME280;52789;59.980;30.346;2022-08-04T08:06:36;101978.44;;;23.16;55.60
66021;BME280;52789;59.980;30.346;2022-08-04T08:09:13;101979.69;;;23.21;56.63
66021;BME280;52789;59.980;30.346;2022-08-04T08:11:50;101981.59;;;23.13;57.14
66021;BME280;52789;59.980;30.346;2022-08-04T08:14:17;101977.84;;;23.14;58.01
66021;BME280;52789;59.980;30.346;2022-08-04T08:16:43;101975.91;;;23.22;58.72
66021;BME280;52789;59.980;30.346;2022-08-04T08:19:09;101975.03;;;23.28;57.78
66021;BME280;52789;59.980;30.346;2022-08-04T08:21:35;101974.81;;;23.29;58.35
66021;BME280;52789;59.980;30.346;2022-08-04T08:27:37;101949.78;;;23.21;56.02
66021;BME280;52789;59.980;30.346;2022-08-04T08:33:39;101951.44;;;23.22;56.55
66021;BME280;52789;59.980;30.346;2022-08-04T08:39:11;101969.31;;;23.42;55.87
66021;BME280;52789;59.980;30.346;2022-08-04T08:47:38;101955.00;;;23.60;54.67
66021;BME280;52789;59.980;30.346;2022-08-04T08:50:31;101961.66;;;23.64;55.02
66021;BME280;52789;59.980;30.346;2022-08-04T08:55:48;101955.16;;;23.65;53.97
66021;BME280;52789;59.980;30.346;2022-08-04T08:58:23;101958.69;;;23.72;53.91
66021;BME280;52789;59.980;30.346;2022-08-04T09:01:11;101955.31;;;23.77;54.41
66021;BME280;52789;59.980;30.346;2022-08-04T09:04:00;101952.91;;;23.87;52.60
66021;BME280;52789;59.980;30.346;2022-08-04T09:06:46;101950.50;;;23.97;52.61
66021;BME280;52789;59.980;30.346;2022-08-04T09:12:25;101955.47;;;24.07;52.48
66021;BME280;52789;59.980;30.346;2022-08-04T09:17:40;101944.28;;;24.15;52.18
66021;BME280;52789;59.980;30.346;2022-08-04T09:20:36;101940.22;;;24.24;51.91
66021;BME280;52789;59.980;30.346;2022-08-04T09:23:16;101946.63;;;24.36;51.21
66021;BME280;52789;59.980;30.346;2022-08-04T09:25:50;101951.03;;;24.37;50.98
66021;BME280;52789;59.980;30.346;2022-08-04T09:28:24;101939.66;;;24.40;51.28
66021;BME280;52789;59.980;30.346;2022-08-04T09:31:27;101953.22;;;24.47;52.10
66021;BME280;52789;59.980;30.346;2022-08-04T09:34:16;101946.25;;;24.51;51.75
66021;BME280;52789;59.980;30.346;2022-08-04T09:36:54;101949.06;;;24.63;50.98
66021;BME280;52789;59.980;30.346;2022-08-04T09:39:46;101942.84;;;24.74;51.97
66021;BME280;52789;59.980;30.346;2022-08-04T09:45:12;101945.25;;;24.82;52.52
66021;BME280;52789;59.980;30.346;2022-08-04T09:47:48;101939.06;;;24.93;51.46
66021;BME280;52789;59.980;30.346;2022-08-04T09:50:34;101929.69;;;24.89;52.24
66021;BME280;52789;59.980;30.346;2022-08-04T09:56:27;101930.56;;;24.83;50.44
66021;BME280;52789;59.980;30.346;2022-08-04T10:02:35;101933.28;;;24.83;50.86
66021;BME280;52789;59.980;30.346;2022-08-04T10:05:10;101922.50;;;24.77;50.67
66021;BME280;52789;59.980;30.346;2022-08-04T10:07:44;101931.63;;;24.82;50.54
66021;BME280;52789;59.980;30.346;2022-08-04T10:10:55;101934.06;;;24.90;49.76
66021;BME280;52789;59.980;30.346;2022-08-04T10:14:00;101947.41;;;24.98;49.09
66021;BME280;52789;59.980;30.346;2022-08-04T10:19:34;101936.19;;;24.88;47.57
66021;BME280;52789;59.980;30.346;2022-08-04T10:27:33;101929.56;;;25.14;47.13
66021;BME280;52789;59.980;30.346;2022-08-04T10:30:05;101934.63;;;25.11;46.35
66021;BME280;52789;59.980;30.346;2022-08-04T10:32:52;101931.16;;;25.22;47.18
66021;BME280;52789;59.980;30.346;2022-08-04T10:35:22;101936.41;;;25.35;46.83
66021;BME280;52789;59.980;30.346;2022-08-04T10:38:31;101919.44;;;25.33;47.13
66021;BME280;52789;59.980;30.346;2022-08-04T10:41:11;101941.97;;;25.40;46.13
66021;BME280;52789;59.980;30.346;2022-08-04T10:46:54;101939.25;;;25.40;46.67
66021;BME280;52789;59.980;30.346;2022-08-04T10:53:10;101940.72;;;25.54;46.82
66021;BME280;52789;59.980;30.346;2022-08-04T10:55:49;101902.66;;;25.48;46.74
66021;BME280;52789;59.980;30.346;2022-08-04T10:58:24;101891.47;;;25.38;46.01
66021;BME280;52789;59.980;30.346;2022-08-04T11:00:55;101933.78;;;25.70;47.44
66021;BME280;52789;59.980;30.346;2022-08-04T11:03:39;101937.34;;;25.71;47.61
66021;BME280;52789;59.980;30.346;2022-08-04T11:06:05;101932.94;;;25.70;47.47
66021;BME280;52789;59.980;30.346;2022-08-04T11:08:47;101928.31;;;25.70;47.24
66021;BME280;52789;59.980;30.346;2022-08-04T11:13:51;101930.22;;;25.70;46.83
66021;BME280;52789;59.980;30.346;2022-08-04T11:16:26;101924.63;;;25.64;47.31
66021;BME280;52789;59.980;30.346;2022-08-04T11:21:42;101924.25;;;25.61;45.90
66021;BME280;52789;59.980;30.346;2022-08-04T11:24:15;101938.88;;;25.67;46.35
66021;BME280;52789;59.980;30.346;2022-08-04T11:26:48;101932.47;;;25.73;46.49
66021;BME280;52789;59.980;30.346;2022-08-04T11:29:25;101910.53;;;25.68;47.14
66021;BME280;52789;59.980;30.346;2022-08-04T11:31:57;101915.66;;;25.76;46.23
66021;BME280;52789;59.980;30.346;2022-08-04T11:34:25;101919.47;;;25.75;46.05
66021;BME280;52789;59.980;30.346;2022-08-04T11:37:18;101918.16;;;25.77;45.97
66021;BME280;52789;59.980;30.346;2022-08-04T11:39:58;101926.56;;;25.76;46.05
66021;BME280;52789;59.980;30.346;2022-08-04T11:47:38;101907.06;;;25.60;45.99
66021;BME280;52789;59.980;30.346;2022-08-04T11:50:13;101916.59;;;25.70;47.31
66021;BME280;52789;59.980;30.346;2022-08-04T11:52:44;101925.38;;;25.72;46.62
66021;BME280;52789;59.980;30.346;2022-08-04T11:55:14;101909.63;;;25.74;47.14
66021;BME280;52789;59.980;30.346;2022-08-04T11:57:40;101913.53;;;25.78;46.77
66021;BME280;52789;59.980;30.346;2022-08-04T12:00:10;101914.00;;;25.75;46.22
66021;BME280;52789;59.980;30.346;2022-08-04T12:03:00;101919.91;;;25.72;46.56
66021;BME280;52789;59.980;30.346;2022-08-04T12:05:34;101911.34;;;25.68;47.08
66021;BME280;52789;59.980;30.346;2022-08-04T12:10:46;101905.00;;;25.74;45.83
66021;BME280;52789;59.980;30.346;2022-08-04T12:13:34;101909.03;;;25.83;46.01
66021;BME280;52789;59.980;30.346;2022-08-04T12:18:33;101908.31;;;25.76;46.24
66021;BME280;52789;59.980;30.346;2022-08-04T12:21:05;101901.44;;;25.74;45.78
66021;BME280;52789;59.980;30.346;2022-08-04T12:23:35;101898.91;;;25.72;45.78
66021;BME280;52789;59.980;30.346;2022-08-04T12:26:05;101894.44;;;25.78;46.14
66021;BME280;52789;59.980;30.346;2022-08-04T12:28:34;101900.00;;;25.83;45.84
66021;BME280;52789;59.980;30.346;2022-08-04T12:32:03;101898.81;;;25.79;45.77
66021;BME280;52789;59.980;30.346;2022-08-04T12:37:03;101897.16;;;25.78;46.55
66021;BME280;52789;59.980;30.346;2022-08-04T12:39:31;101901.66;;;25.84;45.47
66021;BME280;52789;59.980;30.346;2022-08-04T12:42:06;101888.13;;;25.89;45.52
66021;BME280;52789;59.980;30.346;2022-08-04T12:44:40;101885.28;;;25.84;46.40
66021;BME280;52789;59.980;30.346;2022-08-04T12:47:09;101895.38;;;25.83;45.29
66021;BME280;52789;59.980;30.346;2022-08-04T12:49:37;101859.97;;;25.53;45.14
66021;BME280;52789;59.980;30.346;2022-08-04T12:52:04;101889.22;;;25.76;45.59
66021;BME280;52789;59.980;30.346;2022-08-04T12:54:32;101890.50;;;25.74;45.39
66021;BME280;52789;59.980;30.346;2022-08-04T12:56:59;101887.91;;;25.90;44.79
66021;BME280;52789;59.980;30.346;2022-08-04T12:59:25;101881.25;;;25.98;44.77
66021;BME280;52789;59.980;30.346;2022-08-04T13:01:52;101859.06;;;25.94;44.80
66021;BME280;52789;59.980;30.346;2022-08-04T13:04:20;101880.66;;;26.08;44.66
66021;BME280;52789;59.980;30.346;2022-08-04T13:07:00;101880.19;;;26.11;45.43
66021;BME280;52789;59.980;30.346;2022-08-04T13:09:29;101890.97;;;26.17;44.17
66021;BME280;52789;59.980;30.346;2022-08-04T13:11:59;101882.41;;;26.25;43.57
66021;BME280;52789;59.980;30.346;2022-08-04T13:14:30;101873.97;;;26.27;43.34
66021;BME280;52789;59.980;30.346;2022-08-04T13:16:58;101879.34;;;26.34;43.28
66021;BME280;52789;59.980;30.346;2022-08-04T13:19:29;101884.34;;;26.37;42.87
66021;BME280;52789;59.980;30.346;2022-08-04T13:21:56;101878.13;;;26.30;43.01
66021;BME280;52789;59.980;30.346;2022-08-04T13:24:25;101879.78;;;26.31;42.52
66021;BME280;52789;59.980;30.346;2022-08-04T13:27:01;101876.34;;;26.23;42.30
66021;BME280;52789;59.980;30.346;2022-08-04T13:29:46;101874.34;;;26.19;41.98
66021;BME280;52789;59.980;30.346;2022-08-04T13:32:20;101856.56;;;26.05;41.38
66021;BME280;52789;59.980;30.346;2022-08-04T13:34:48;101872.69;;;26.18;41.69
66021;BME280;52789;59.980;30.346;2022-08-04T13:37:23;101855.38;;;26.12;41.77
66021;BME280;52789;59.980;30.346;2022-08-04T13:39:50;101843.84;;;26.10;41.60
66021;BME280;52789;59.980;30.346;2022-08-04T13:42:17;101855.38;;;26.12;41.15
66021;BME280;52789;59.980;30.346;2022-08-04T13:44:48;101856.19;;;26.01;40.86
66021;BME280;52789;59.980;30.346;2022-08-04T13:47:26;101853.13;;;25.86;41.90
66021;BME280;52789;59.980;30.346;2022-08-04T13:52:41;101852.03;;;25.63;42.74
66021;BME280;52789;59.980;30.346;2022-08-04T13:55:18;101858.31;;;25.64;43.13
66021;BME280;52789;59.980;30.346;2022-08-04T13:57:46;101843.59;;;25.53;43.43
66021;BME280;52789;59.980;30.346;2022-08-04T14:00:14;101852.72;;;25.47;42.26
66021;BME280;52789;59.980;30.346;2022-08-04T14:03:00;101854.88;;;25.45;42.38
66021;BME280;52789;59.980;30.346;2022-08-04T14:05:28;101860.03;;;25.35;40.62
66021;BME280;52789;59.980;30.346;2022-08-04T14:08:14;101859.44;;;25.33;41.64
66021;BME280;52789;59.980;30.346;2022-08-04T14:10:55;101853.75;;;25.35;39.12
66021;BME280;52789;59.980;30.346;2022-08-04T14:13:32;101852.94;;;25.34;39.81
66021;BME280;52789;59.980;30.346;2022-08-04T14:15:58;101849.63;;;25.32;38.17
66021;BME280;52789;59.980;30.346;2022-08-04T14:18:29;101854.59;;;25.35;37.35
66021;BME280;52789;59.980;30.346;2022-08-04T14:21:10;101845.63;;;25.46;38.89
66021;BME280;52789;59.980;30.346;2022-08-04T14:23:54;101843.59;;;25.53;38.24
66021;BME280;52789;59.980;30.346;2022-08-04T14:26:24;101858.69;;;25.68;37.12
66021;BME280;52789;59.980;30.346;2022-08-04T14:28:51;101859.28;;;25.70;37.07
66021;BME280;52789;59.980;30.346;2022-08-04T14:31:22;101853.59;;;25.71;37.20
66021;BME280;52789;59.980;30.346;2022-08-04T14:33:50;101855.50;;;25.82;37.54
66021;BME280;52789;59.980;30.346;2022-08-04T14:36:16;101854.31;;;25.90;36.66
66021;BME280;52789;59.980;30.346;2022-08-04T14:41:16;101835.69;;;25.87;36.64
66021;BME280;52789;59.980;30.346;2022-08-04T14:43:53;101845.16;;;25.96;36.63
66021;BME280;52789;59.980;30.346;2022-08-04T14:46:20;101851.81;;;26.00;35.54
66021;BME280;52789;59.980;30.346;2022-08-04T14:49:18;101854.09;;;26.03;36.85
66021;BME280;52789;59.980;30.346;2022-08-04T14:54:28;101853.13;;;25.98;36.26
66021;BME280;52789;59.980;30.346;2022-08-04T14:56:56;101854.44;;;25.95;36.85
66021;BME280;52789;59.980;30.346;2022-08-04T14:59:23;101836.16;;;25.84;36.90
66021;BME280;52789;59.980;30.346;2022-08-04T15:01:49;101851.59;;;25.90;37.26
66021;BME280;52789;59.980;30.346;2022-08-04T15:04:15;101849.94;;;25.89;37.05
66021;BME280;52789;59.980;30.346;2022-08-04T15:17:43;101856.09;;;25.73;36.01
66021;BME280;52789;59.980;30.346;2022-08-04T15:20:09;101853.34;;;25.73;35.16
66021;BME280;52789;59.980;30.346;2022-08-04T15:22:35;101849.44;;;25.69;36.72
66021;BME280;52789;59.980;30.346;2022-08-04T15:25:00;101858.31;;;25.64;36.11
66021;BME280;52789;59.980;30.346;2022-08-04T15:27:28;101861.50;;;25.61;36.90
66021;BME280;52789;59.980;30.346;2022-08-04T15:29:59;101845.03;;;25.56;35.89
66021;BME280;52789;59.980;30.346;2022-08-04T15:32:27;101842.06;;;25.57;35.52
66021;BME280;52789;59.980;30.346;2022-08-04T15:35:07;101849.41;;;25.57;35.33
66021;BME280;52789;59.980;30.346;2022-08-04T15:38:03;101851.31;;;25.56;35.92
66021;BME280;52789;59.980;30.346;2022-08-04T15:41:04;101843.00;;;25.51;36.12
66021;BME280;52789;59.980;30.346;2022-08-04T15:43:52;101845.25;;;25.54;36.26
66021;BME280;52789;59.980;30.346;2022-08-04T15:49:22;101858.03;;;25.42;36.86
66021;BME280;52789;59.980;30.346;2022-08-04T15:52:14;101851.63;;;25.37;36.10
66021;BME280;52789;59.980;30.346;2022-08-04T15:55:34;101852.81;;;25.41;36.49
66021;BME280;52789;59.980;30.346;2022-08-04T15:58:10;101851.88;;;25.35;37.41
66021;BME280;52789;59.980;30.346;2022-08-04T16:01:12;101853.03;;;25.27;36.89
66021;BME280;52789;59.980;30.346;2022-08-04T16:03:43;101849.72;;;25.25;36.31
66021;BME280;52789;59.980;30.346;2022-08-04T16:16:26;101845.41;;;25.06;38.75
66021;BME280;52789;59.980;30.346;2022-08-04T16:18:53;101843.97;;;25.04;39.17
66021;BME280;52789;59.980;30.346;2022-08-04T16:21:24;101853.69;;;25.11;36.97
66021;BME280;52789;59.980;30.346;2022-08-04T16:37:09;101850.88;;;25.94;34.59
66021;BME280;52789;59.980;30.346;2022-08-04T16:43:17;101859.66;;;26.08;34.73
66021;BME280;52789;59.980;30.346;2022-08-04T16:46:03;101855.22;;;26.19;34.29
66021;BME280;52789;59.980;30.346;2022-08-04T16:49:16;101851.56;;;26.13;34.06
66021;BME280;52789;59.980;30.346;2022-08-04T16:52:19;101845.63;;;26.16;34.79
66021;BME280;52789;59.980;30.346;2022-08-04T16:55:17;101855.00;;;26.20;35.23
66021;BME280;52789;59.980;30.346;2022-08-04T16:58:12;101839.34;;;26.16;35.05
66021;BME280;52789;59.980;30.346;2022-08-04T17:00:42;101852.03;;;26.22;35.20
66021;BME280;52789;59.980;30.346;2022-08-04T17:03:19;101842.75;;;26.23;35.07
66021;BME280;52789;59.980;30.346;2022-08-04T17:06:18;101849.16;;;26.29;35.24
66021;BME280;52789;59.980;30.346;2022-08-04T17:08:47;101821.09;;;26.05;33.98